ESOE/ORB METAR and TAF weather

Enter ICAO airport designator
Station Type Date Time Source
ESOE METAR 2020/06/06 14:20 UTC NOAA

ESOE 061420Z AUTO 21012KT 160V240 9999 R01///// R19///// BKN094/// 18/03 Q0989


Station Type Date Time Source
ESOE Decoded METAR 2020/06/06 14:20 UTC NOAA

Orebro Private , Sweden (ESOE) 59-14N 015-03E
Jun 06, 2020 - 10:20 AM EDT / 2020.06.06 1420 UTC
Wind: from the SSW (210 degrees) at 14 MPH (12 KT) (direction variable):0
Visibility: greater than 7 mile(s):0
Sky conditions: mostly cloudy
Temperature: 64 F (18 C)
Dew Point: 37 F (3 C)
Relative Humidity: 36%
Pressure (altimeter): 29.21 in. Hg (0989 hPa)
ob: ESOE 061420Z AUTO 21012KT 160V240 9999 R01///// R19///// BKN094/// 18/03 Q0989
cycle: 14

Station Type Date Time Source
ESOE TAF 2016/03/16 04:36 UTC NOAA

TAF TAF ESOE 160330Z 1604/1624 23005KT 9000 BR NSC PROB40 1604/1607 1200 BR

Example: see airport list